sensor_id;sensor_type;location;lat;lon;timestamp;pressure;altitude;pressure_sealevel;temperature;humidity
42067;BME280;27734;47.028;28.820;2024-02-28T00:00:47;101285.14;;;4.88;61.24
42067;BME280;27734;47.028;28.820;2024-02-28T00:03:38;101277.23;;;4.86;61.60
42067;BME280;27734;47.028;28.820;2024-02-28T00:06:10;101277.94;;;4.83;62.33
42067;BME280;27734;47.028;28.820;2024-02-28T00:08:41;101277.61;;;4.79;61.33
42067;BME280;27734;47.028;28.820;2024-02-28T00:11:12;101272.41;;;4.79;61.72
42067;BME280;27734;47.028;28.820;2024-02-28T00:13:43;101274.80;;;4.76;62.51
42067;BME280;27734;47.028;28.820;2024-02-28T00:16:14;101272.86;;;4.73;62.13
42067;BME280;27734;47.028;28.820;2024-02-28T00:18:45;101269.27;;;4.71;62.20
42067;BME280;27734;47.028;28.820;2024-02-28T00:21:17;101275.14;;;4.68;62.28
42067;BME280;27734;47.028;28.820;2024-02-28T00:23:48;101272.42;;;4.67;62.07
42067;BME280;27734;47.028;28.820;2024-02-28T00:26:19;101272.09;;;4.62;63.18
42067;BME280;27734;47.028;28.820;2024-02-28T00:28:50;101276.18;;;4.59;62.77
42067;BME280;27734;47.028;28.820;2024-02-28T00:31:21;101284.77;;;4.58;63.41
42067;BME280;27734;47.028;28.820;2024-02-28T00:33:53;101273.25;;;4.54;63.21
42067;BME280;27734;47.028;28.820;2024-02-28T00:36:24;101268.72;;;4.52;63.09
42067;BME280;27734;47.028;28.820;2024-02-28T00:38:55;101276.41;;;4.50;63.25
42067;BME280;27734;47.028;28.820;2024-02-28T00:41:26;101269.42;;;4.49;63.20
42067;BME280;27734;47.028;28.820;2024-02-28T00:43:58;101269.31;;;4.47;62.85
42067;BME280;27734;47.028;28.820;2024-02-28T00:46:29;101264.11;;;4.47;62.79
42067;BME280;27734;47.028;28.820;2024-02-28T00:49:00;101265.79;;;4.47;63.43
42067;BME280;27734;47.028;28.820;2024-02-28T00:51:32;101274.40;;;4.46;63.34
42067;BME280;27734;47.028;28.820;2024-02-28T00:54:03;101273.59;;;4.47;63.40
42067;BME280;27734;47.028;28.820;2024-02-28T00:56:35;101269.98;;;4.45;62.89
42067;BME280;27734;47.028;28.820;2024-02-28T00:59:06;101272.58;;;4.45;63.27
42067;BME280;27734;47.028;28.820;2024-02-28T01:01:41;101268.16;;;4.44;63.50
42067;BME280;27734;47.028;28.820;2024-02-28T01:04:12;101260.26;;;4.42;63.60
42067;BME280;27734;47.028;28.820;2024-02-28T01:06:44;101268.16;;;4.44;63.42
42067;BME280;27734;47.028;28.820;2024-02-28T01:09:15;101261.96;;;4.42;63.75
42067;BME280;27734;47.028;28.820;2024-02-28T01:11:46;101258.47;;;4.41;63.41
42067;BME280;27734;47.028;28.820;2024-02-28T01:14:18;101257.44;;;4.39;63.16
42067;BME280;27734;47.028;28.820;2024-02-28T01:16:50;101258.14;;;4.37;63.70
42067;BME280;27734;47.028;28.820;2024-02-28T01:19:21;101270.20;;;4.36;63.92
42067;BME280;27734;47.028;28.820;2024-02-28T01:21:52;101258.92;;;4.36;63.56
42067;BME280;27734;47.028;28.820;2024-02-28T01:24:23;101270.20;;;4.36;63.80
42067;BME280;27734;47.028;28.820;2024-02-28T01:26:55;101264.00;;;4.34;63.70
42067;BME280;27734;47.028;28.820;2024-02-28T01:29:26;101276.22;;;4.35;63.50
42067;BME280;27734;47.028;28.820;2024-02-28T01:31:57;101261.52;;;4.36;63.41
42067;BME280;27734;47.028;28.820;2024-02-28T01:34:28;101269.31;;;4.36;63.19
42067;BME280;27734;47.028;28.820;2024-02-28T01:36:59;101256.09;;;4.32;63.46
42067;BME280;27734;47.028;28.820;2024-02-28T01:39:31;101256.09;;;4.32;63.22
42067;BME280;27734;47.028;28.820;2024-02-28T01:42:02;101261.95;;;4.30;63.50
42067;BME280;27734;47.028;28.820;2024-02-28T01:44:35;101265.38;;;4.29;63.49
42067;BME280;27734;47.028;28.820;2024-02-28T01:47:09;101270.57;;;4.29;63.64
42067;BME280;27734;47.028;28.820;2024-02-28T01:49:41;101266.04;;;4.26;63.97
42067;BME280;27734;47.028;28.820;2024-02-28T01:52:13;101266.04;;;4.26;64.17
42067;BME280;27734;47.028;28.820;2024-02-28T01:54:44;101264.22;;;4.25;64.18
42067;BME280;27734;47.028;28.820;2024-02-28T01:57:16;101269.19;;;4.22;64.28
42067;BME280;27734;47.028;28.820;2024-02-28T01:59:48;101271.59;;;4.19;64.23
42067;BME280;27734;47.028;28.820;2024-02-28T02:02:19;101274.86;;;4.17;63.86
42067;BME280;27734;47.028;28.820;2024-02-28T02:04:51;101271.92;;;4.12;64.25
42067;BME280;27734;47.028;28.820;2024-02-28T02:07:24;101268.32;;;4.10;64.90
42067;BME280;27734;47.028;28.820;2024-02-28T02:09:55;101272.59;;;4.09;64.22
42067;BME280;27734;47.028;28.820;2024-02-28T02:12:27;101275.07;;;4.08;64.58
42067;BME280;27734;47.028;28.820;2024-02-28T02:14:58;101274.30;;;4.09;63.88
42067;BME280;27734;47.028;28.820;2024-02-28T02:17:29;101278.02;;;4.12;63.96
42067;BME280;27734;47.028;28.820;2024-02-28T02:20:00;101270.91;;;4.10;64.47
42067;BME280;27734;47.028;28.820;2024-02-28T02:22:35;101274.17;;;4.07;64.47
42067;BME280;27734;47.028;28.820;2024-02-28T02:25:09;101274.84;;;4.05;64.38
42067;BME280;27734;47.028;28.820;2024-02-28T02:27:40;101272.13;;;4.03;63.97
42067;BME280;27734;47.028;28.820;2024-02-28T02:30:13;101272.02;;;4.02;63.94
42067;BME280;27734;47.028;28.820;2024-02-28T02:32:44;101269.31;;;4.00;64.80
42067;BME280;27734;47.028;28.820;2024-02-28T02:35:15;101271.79;;;3.99;64.25
42067;BME280;27734;47.028;28.820;2024-02-28T02:37:47;101268.19;;;3.96;64.75
42067;BME280;27734;47.028;28.820;2024-02-28T02:40:18;101281.95;;;3.95;64.65
42067;BME280;27734;47.028;28.820;2024-02-28T02:42:49;101274.73;;;3.91;64.74
42067;BME280;27734;47.028;28.820;2024-02-28T02:45:21;101272.80;;;3.89;65.52
42067;BME280;27734;47.028;28.820;2024-02-28T02:47:52;101278.89;;;3.89;64.77
42067;BME280;27734;47.028;28.820;2024-02-28T02:50:23;101275.28;;;3.87;64.63
42067;BME280;27734;47.028;28.820;2024-02-28T02:52:54;101278.78;;;3.88;65.43
42067;BME280;27734;47.028;28.820;2024-02-28T02:55:26;101272.58;;;3.86;64.91
42067;BME280;27734;47.028;28.820;2024-02-28T02:57:57;101274.05;;;3.82;65.22
42067;BME280;27734;47.028;28.820;2024-02-28T03:00:28;101278.89;;;3.77;66.20
42067;BME280;27734;47.028;28.820;2024-02-28T03:03:00;101269.60;;;3.69;65.69
42067;BME280;27734;47.028;28.820;2024-02-28T03:05:31;101271.88;;;3.65;65.80
42067;BME280;27734;47.028;28.820;2024-02-28T03:08:02;101275.25;;;3.64;66.16
42067;BME280;27734;47.028;28.820;2024-02-28T03:10:34;101282.03;;;3.62;65.43
42067;BME280;27734;47.028;28.820;2024-02-28T03:13:05;101279.44;;;3.62;65.39
42067;BME280;27734;47.028;28.820;2024-02-28T03:15:37;101283.58;;;3.59;66.23
42067;BME280;27734;47.028;28.820;2024-02-28T03:18:08;101291.37;;;3.59;66.31
42067;BME280;27734;47.028;28.820;2024-02-28T03:20:39;101291.13;;;3.56;66.49
42067;BME280;27734;47.028;28.820;2024-02-28T03:23:11;101299.49;;;3.52;66.31
42067;BME280;27734;47.028;28.820;2024-02-28T03:25:43;101294.96;;;3.50;66.24
42067;BME280;27734;47.028;28.820;2024-02-28T03:28:15;101299.80;;;3.45;66.87
42067;BME280;27734;47.028;28.820;2024-02-28T03:30:46;101308.35;;;3.44;66.41
42067;BME280;27734;47.028;28.820;2024-02-28T03:33:17;101316.14;;;3.44;67.08
42067;BME280;27734;47.028;28.820;2024-02-28T03:35:48;101310.83;;;3.42;66.88
42067;BME280;27734;47.028;28.820;2024-02-28T03:38:19;101310.71;;;3.41;66.69
42067;BME280;27734;47.028;28.820;2024-02-28T03:40:51;101310.83;;;3.42;67.27
42067;BME280;27734;47.028;28.820;2024-02-28T03:43:22;101307.46;;;3.44;67.62
42067;BME280;27734;47.028;28.820;2024-02-28T03:45:53;101308.35;;;3.44;66.90
42067;BME280;27734;47.028;28.820;2024-02-28T03:48:25;101300.45;;;3.42;67.44
42067;BME280;27734;47.028;28.820;2024-02-28T03:50:56;101297.73;;;3.41;67.59
42067;BME280;27734;47.028;28.820;2024-02-28T03:53:27;101302.03;;;3.40;67.62
42067;BME280;27734;47.028;28.820;2024-02-28T03:55:58;101296.48;;;3.36;67.85
42067;BME280;27734;47.028;28.820;2024-02-28T03:58:29;101295.59;;;3.35;68.18
42067;BME280;27734;47.028;28.820;2024-02-28T04:01:01;101297.02;;;3.32;68.42
42067;BME280;27734;47.028;28.820;2024-02-28T04:03:32;101300.96;;;3.27;68.08
42067;BME280;27734;47.028;28.820;2024-02-28T04:06:03;101303.31;;;3.23;67.74
42067;BME280;27734;47.028;28.820;2024-02-28T04:08:34;101307.49;;;3.21;68.16
42067;BME280;27734;47.028;28.820;2024-02-28T04:11:05;101310.09;;;3.21;68.44
42067;BME280;27734;47.028;28.820;2024-02-28T04:13:37;101306.45;;;3.19;68.24
42067;BME280;27734;47.028;28.820;2024-02-28T04:16:09;101311.63;;;3.19;68.03
42067;BME280;27734;47.028;28.820;2024-02-28T04:18:40;101315.92;;;3.19;68.16
42067;BME280;27734;47.028;28.820;2024-02-28T04:21:13;101313.33;;;3.19;67.92
42067;BME280;27734;47.028;28.820;2024-02-28T04:23:44;101320.10;;;3.17;69.01
42067;BME280;27734;47.028;28.820;2024-02-28T04:26:15;101316.38;;;3.13;69.26
42067;BME280;27734;47.028;28.820;2024-02-28T04:28:46;101313.90;;;3.15;68.51
42067;BME280;27734;47.028;28.820;2024-02-28T04:31:17;101320.10;;;3.17;69.22
42067;BME280;27734;47.028;28.820;2024-02-28T04:33:48;101315.80;;;3.17;68.97
42067;BME280;27734;47.028;28.820;2024-02-28T04:36:20;101321.77;;;3.16;72.01
42067;BME280;27734;47.028;28.820;2024-02-28T04:38:51;101317.27;;;3.14;69.91
42067;BME280;27734;47.028;28.820;2024-02-28T04:41:23;101317.14;;;3.12;69.89
42067;BME280;27734;47.028;28.820;2024-02-28T04:43:54;101320.63;;;3.13;69.44
42067;BME280;27734;47.028;28.820;2024-02-28T04:46:25;101326.62;;;3.12;69.80
42067;BME280;27734;47.028;28.820;2024-02-28T04:48:56;101330.11;;;3.12;70.35
42067;BME280;27734;47.028;28.820;2024-02-28T04:51:28;101327.64;;;3.14;69.66
42067;BME280;27734;47.028;28.820;2024-02-28T04:53:59;101326.87;;;3.15;70.52
42067;BME280;27734;47.028;28.820;2024-02-28T04:56:30;101322.57;;;3.15;70.43
42067;BME280;27734;47.028;28.820;2024-02-28T04:59:01;101332.14;;;3.16;69.62
42067;BME280;27734;47.028;28.820;2024-02-28T05:01:33;101344.58;;;3.20;70.06
42067;BME280;27734;47.028;28.820;2024-02-28T05:04:05;101346.52;;;3.23;69.78
42067;BME280;27734;47.028;28.820;2024-02-28T05:06:36;101345.06;;;3.27;69.96
42067;BME280;27734;47.028;28.820;2024-02-28T05:09:08;101346.08;;;3.29;69.69
42067;BME280;27734;47.028;28.820;2024-02-28T05:11:39;101345.42;;;3.31;70.68
42067;BME280;27734;47.028;28.820;2024-02-28T05:14:11;101353.33;;;3.33;70.31
42067;BME280;27734;47.028;28.820;2024-02-28T05:16:42;101352.55;;;3.34;70.21
42067;BME280;27734;47.028;28.820;2024-02-28T05:19:13;101359.65;;;3.36;70.83
42067;BME280;27734;47.028;28.820;2024-02-28T05:21:47;101357.41;;;3.41;70.56
42067;BME280;27734;47.028;28.820;2024-02-28T05:24:19;101363.66;;;3.43;70.41
42067;BME280;27734;47.028;28.820;2024-02-28T05:26:52;101366.37;;;3.45;70.52
42067;BME280;27734;47.028;28.820;2024-02-28T05:29:23;101370.62;;;3.44;71.15
42067;BME280;27734;47.028;28.820;2024-02-28T05:31:54;101370.51;;;3.42;70.92
42067;BME280;27734;47.028;28.820;2024-02-28T05:34:26;101373.91;;;3.41;72.09
42067;BME280;27734;47.028;28.820;2024-02-28T05:36:57;101368.84;;;3.43;71.01
42067;BME280;27734;47.028;28.820;2024-02-28T05:39:29;101372.56;;;3.47;71.96
42067;BME280;27734;47.028;28.820;2024-02-28T05:42:00;101378.29;;;3.42;71.44
42067;BME280;27734;47.028;28.820;2024-02-28T05:44:32;101372.09;;;3.40;71.04
42067;BME280;27734;47.028;28.820;2024-02-28T05:47:04;101377.93;;;3.38;71.01
42067;BME280;27734;47.028;28.820;2024-02-28T05:49:36;101382.47;;;3.40;71.62
42067;BME280;27734;47.028;28.820;2024-02-28T05:52:07;101381.33;;;3.37;72.20
42067;BME280;27734;47.028;28.820;2024-02-28T05:54:39;101382.87;;;3.35;72.32
42067;BME280;27734;47.028;28.820;2024-02-28T05:57:11;101385.71;;;3.38;72.74
42067;BME280;27734;47.028;28.820;2024-02-28T05:59:42;101384.28;;;3.41;71.90
42067;BME280;27734;47.028;28.820;2024-02-28T06:02:13;101386.08;;;3.42;72.10
42067;BME280;27734;47.028;28.820;2024-02-28T06:04:44;101386.31;;;3.46;72.18
42067;BME280;27734;47.028;28.820;2024-02-28T06:07:16;101394.58;;;3.52;71.98
42067;BME280;27734;47.028;28.820;2024-02-28T06:09:47;101391.33;;;3.54;72.83
42067;BME280;27734;47.028;28.820;2024-02-28T06:12:18;101393.03;;;3.54;72.45
42067;BME280;27734;47.028;28.820;2024-02-28T06:14:49;101392.11;;;3.53;72.87
42067;BME280;27734;47.028;28.820;2024-02-28T06:17:24;101397.42;;;3.55;73.69
42067;BME280;27734;47.028;28.820;2024-02-28T06:19:55;101396.52;;;3.54;73.29
42067;BME280;27734;47.028;28.820;2024-02-28T06:22:26;101397.54;;;3.56;72.88
42067;BME280;27734;47.028;28.820;2024-02-28T06:24:58;101399.06;;;3.65;73.19
42067;BME280;27734;47.028;28.820;2024-02-28T06:27:29;101408.88;;;3.69;73.12
42067;BME280;27734;47.028;28.820;2024-02-28T06:30:21;101404.16;;;3.75;72.83
42067;BME280;27734;47.028;28.820;2024-02-28T06:32:52;101403.75;;;3.81;73.12
42067;BME280;27734;47.028;28.820;2024-02-28T06:35:23;101407.83;;;3.89;72.46
42067;BME280;27734;47.028;28.820;2024-02-28T06:37:54;101406.48;;;3.94;73.56
42067;BME280;27734;47.028;28.820;2024-02-28T06:40:29;101405.28;;;4.01;73.58
42067;BME280;27734;47.028;28.820;2024-02-28T06:43:00;101417.69;;;4.05;73.05
42067;BME280;27734;47.028;28.820;2024-02-28T06:45:31;101415.91;;;4.04;73.13
42067;BME280;27734;47.028;28.820;2024-02-28T06:48:04;101417.81;;;4.06;73.42
42067;BME280;27734;47.028;28.820;2024-02-28T06:50:36;101414.44;;;4.07;73.85
42067;BME280;27734;47.028;28.820;2024-02-28T06:53:07;101414.79;;;4.12;73.02
42067;BME280;27734;47.028;28.820;2024-02-28T06:55:39;101411.77;;;4.18;73.58
42067;BME280;27734;47.028;28.820;2024-02-28T06:58:10;101407.46;;;4.18;74.43
42067;BME280;27734;47.028;28.820;2024-02-28T07:00:41;101415.38;;;4.20;73.46
42067;BME280;27734;47.028;28.820;2024-02-28T07:03:12;101418.32;;;4.24;74.02
42067;BME280;27734;47.028;28.820;2024-02-28T07:05:44;101428.25;;;4.30;74.10
42067;BME280;27734;47.028;28.820;2024-02-28T07:08:15;101428.48;;;4.33;74.14
42067;BME280;27734;47.028;28.820;2024-02-28T07:10:50;101432.01;;;4.34;73.65
42067;BME280;27734;47.028;28.820;2024-02-28T07:13:23;101429.06;;;4.41;73.64
42067;BME280;27734;47.028;28.820;2024-02-28T07:15:54;101430.88;;;4.42;73.54
42067;BME280;27734;47.028;28.820;2024-02-28T07:18:28;101431.23;;;4.46;73.68
42067;BME280;27734;47.028;28.820;2024-02-28T07:20:59;101434.17;;;4.51;73.96
42067;BME280;27734;47.028;28.820;2024-02-28T07:23:31;101436.11;;;4.54;73.90
42067;BME280;27734;47.028;28.820;2024-02-28T07:26:04;101441.54;;;4.57;73.84
42067;BME280;27734;47.028;28.820;2024-02-28T07:28:35;101444.25;;;4.58;73.21
42067;BME280;27734;47.028;28.820;2024-02-28T07:31:06;101442.23;;;4.66;73.87
42067;BME280;27734;47.028;28.820;2024-02-28T07:33:38;101441.64;;;4.70;73.45
42067;BME280;27734;47.028;28.820;2024-02-28T07:36:10;101438.27;;;4.71;73.80
42067;BME280;27734;47.028;28.820;2024-02-28T07:38:44;101443.22;;;4.80;74.59
42067;BME280;27734;47.028;28.820;2024-02-28T07:41:15;101444.14;;;4.80;73.64
42067;BME280;27734;47.028;28.820;2024-02-28T07:43:46;101444.38;;;4.83;73.84
42067;BME280;27734;47.028;28.820;2024-02-28T07:46:17;101446.27;;;4.86;73.61
42067;BME280;27734;47.028;28.820;2024-02-28T07:48:49;101447.54;;;4.91;73.61
42067;BME280;27734;47.028;28.820;2024-02-28T07:51:20;101447.54;;;4.91;73.91
42067;BME280;27734;47.028;28.820;2024-02-28T07:53:52;101453.97;;;4.96;73.67
42067;BME280;27734;47.028;28.820;2024-02-28T07:56:26;101454.31;;;5.01;73.77
42067;BME280;27734;47.028;28.820;2024-02-28T07:58:58;101457.48;;;5.09;73.96
42067;BME280;27734;47.028;28.820;2024-02-28T08:01:30;101447.52;;;5.15;73.75
42067;BME280;27734;47.028;28.820;2024-02-28T08:04:01;101454.88;;;5.20;73.85
42067;BME280;27734;47.028;28.820;2024-02-28T08:06:34;101459.04;;;5.30;73.55
42067;BME280;27734;47.028;28.820;2024-02-28T08:09:09;101463.76;;;5.36;73.88
42067;BME280;27734;47.028;28.820;2024-02-28T08:11:41;101464.69;;;5.36;72.96
42067;BME280;27734;47.028;28.820;2024-02-28T08:14:14;101462.86;;;5.47;73.77
42067;BME280;27734;47.028;28.820;2024-02-28T08:16:50;101455.59;;;5.55;73.21
42067;BME280;27734;47.028;28.820;2024-02-28T08:19:24;101458.53;;;5.60;73.72
42067;BME280;27734;47.028;28.820;2024-02-28T08:21:55;101465.28;;;5.69;73.67
42067;BME280;27734;47.028;28.820;2024-02-28T08:24:27;101469.11;;;5.74;74.03
42067;BME280;27734;47.028;28.820;2024-02-28T08:26:58;101471.81;;;5.76;73.33
42067;BME280;27734;47.028;28.820;2024-02-28T08:29:31;101469.32;;;5.78;73.36
42067;BME280;27734;47.028;28.820;2024-02-28T08:32:08;101465.11;;;5.80;73.61
42067;BME280;27734;47.028;28.820;2024-02-28T08:34:45;101464.87;;;5.88;73.52
42067;BME280;27734;47.028;28.820;2024-02-28T08:37:16;101463.83;;;5.98;73.59
42067;BME280;27734;47.028;28.820;2024-02-28T08:39:48;101459.87;;;6.03;73.26
42067;BME280;27734;47.028;28.820;2024-02-28T08:42:19;101461.30;;;6.11;73.25
42067;BME280;27734;47.028;28.820;2024-02-28T08:44:52;101461.61;;;6.16;73.11
42067;BME280;27734;47.028;28.820;2024-02-28T08:47:25;101467.14;;;6.21;73.33
42067;BME280;27734;47.028;28.820;2024-02-28T08:49:58;101461.24;;;6.23;73.15
42067;BME280;27734;47.028;28.820;2024-02-28T08:52:29;101462.50;;;6.17;72.80
42067;BME280;27734;47.028;28.820;2024-02-28T08:55:00;101467.50;;;6.14;72.96
42067;BME280;27734;47.028;28.820;2024-02-28T08:57:32;101457.50;;;6.20;73.25
42067;BME280;27734;47.028;28.820;2024-02-28T09:00:05;101453.64;;;6.26;73.17
42067;BME280;27734;47.028;28.820;2024-02-28T09:02:40;101458.95;;;6.28;73.00
42067;BME280;27734;47.028;28.820;2024-02-28T09:05:11;101463.13;;;6.26;72.90
42067;BME280;27734;47.028;28.820;2024-02-28T09:07:43;101458.34;;;6.32;73.07
42067;BME280;27734;47.028;28.820;2024-02-28T09:10:16;101458.95;;;6.28;72.95
42067;BME280;27734;47.028;28.820;2024-02-28T09:15:48;101454.95;;;6.33;72.96
42067;BME280;27734;47.028;28.820;2024-02-28T09:18:19;101452.04;;;6.42;72.95
42067;BME280;27734;47.028;28.820;2024-02-28T09:20:52;101443.16;;;6.52;73.21
42067;BME280;27734;47.028;28.820;2024-02-28T09:23:23;101444.66;;;6.61;73.15
42067;BME280;27734;47.028;28.820;2024-02-28T09:25:54;101442.57;;;6.69;73.13
42067;BME280;27734;47.028;28.820;2024-02-28T09:28:26;101447.98;;;6.72;72.60
42067;BME280;27734;47.028;28.820;2024-02-28T09:30:57;101446.69;;;6.65;72.81
42067;BME280;27734;47.028;28.820;2024-02-28T09:33:28;101447.98;;;6.72;72.52
42067;BME280;27734;47.028;28.820;2024-02-28T09:36:05;101453.72;;;6.80;72.79
42067;BME280;27734;47.028;28.820;2024-02-28T09:38:36;101451.31;;;6.83;72.68
42067;BME280;27734;47.028;28.820;2024-02-28T09:41:10;101449.80;;;6.87;72.78
42067;BME280;27734;47.028;28.820;2024-02-28T09:43:46;101448.28;;;6.90;72.91
42067;BME280;27734;47.028;28.820;2024-02-28T09:46:18;101452.02;;;6.94;72.68
42067;BME280;27734;47.028;28.820;2024-02-28T09:48:51;101440.36;;;7.02;72.77
42067;BME280;27734;47.028;28.820;2024-02-28T09:51:23;101437.75;;;7.15;72.96
42067;BME280;27734;47.028;28.820;2024-02-28T09:53:57;101445.98;;;7.22;72.39
42067;BME280;27734;47.028;28.820;2024-02-28T09:56:30;101442.34;;;7.33;72.73
42067;BME280;27734;47.028;28.820;2024-02-28T09:59:02;101441.31;;;7.44;72.44
42067;BME280;27734;47.028;28.820;2024-02-28T10:01:41;101440.27;;;7.55;72.78
42067;BME280;27734;47.028;28.820;2024-02-28T10:04:13;101440.44;;;7.72;72.33
42067;BME280;27734;47.028;28.820;2024-02-28T10:06:45;101437.05;;;7.88;72.50
42067;BME280;27734;47.028;28.820;2024-02-28T10:09:18;101430.24;;;8.05;72.44
42067;BME280;27734;47.028;28.820;2024-02-28T10:11:49;101435.23;;;8.15;72.80
42067;BME280;27734;47.028;28.820;2024-02-28T10:14:21;101439.72;;;8.18;71.74
42067;BME280;27734;47.028;28.820;2024-02-28T10:16:52;101434.59;;;8.19;71.90
42067;BME280;27734;47.028;28.820;2024-02-28T10:19:24;101433.78;;;8.20;72.05
42067;BME280;27734;47.028;28.820;2024-02-28T10:21:56;101432.16;;;8.22;71.79
42067;BME280;27734;47.028;28.820;2024-02-28T10:24:28;101434.16;;;8.26;71.47
42067;BME280;27734;47.028;28.820;2024-02-28T10:27:02;101431.02;;;8.32;71.82
42067;BME280;27734;47.028;28.820;2024-02-28T10:29:33;101429.01;;;8.43;70.85
42067;BME280;27734;47.028;28.820;2024-02-28T10:35:21;101415.80;;;8.70;71.12
42067;BME280;27734;47.028;28.820;2024-02-28T10:37:57;101412.08;;;8.81;71.35
42067;BME280;27734;47.028;28.820;2024-02-28T10:40:29;101408.17;;;8.89;70.91
42067;BME280;27734;47.028;28.820;2024-02-28T10:43:01;101389.66;;;9.01;71.17
42067;BME280;27734;47.028;28.820;2024-02-28T10:45:34;101392.81;;;8.95;70.13
42067;BME280;27734;47.028;28.820;2024-02-28T10:48:07;101394.14;;;9.04;70.95
42067;BME280;27734;47.028;28.820;2024-02-28T10:50:39;101388.19;;;9.06;70.14
42067;BME280;27734;47.028;28.820;2024-02-28T10:53:14;101392.36;;;9.03;70.17
42067;BME280;27734;47.028;28.820;2024-02-28T10:55:49;101386.55;;;9.08;70.28
42067;BME280;27734;47.028;28.820;2024-02-28T10:58:26;101379.03;;;9.14;70.67
42067;BME280;27734;47.028;28.820;2024-02-28T11:01:01;101375.86;;;9.20;70.55
42067;BME280;27734;47.028;28.820;2024-02-28T11:03:36;101369.82;;;9.21;70.25
42067;BME280;27734;47.028;28.820;2024-02-28T11:06:20;101362.13;;;9.24;70.20
42067;BME280;27734;47.028;28.820;2024-02-28T11:08:53;101350.98;;;9.28;70.01
42067;BME280;27734;47.028;28.820;2024-02-28T11:11:35;101350.52;;;9.35;69.86
42067;BME280;27734;47.028;28.820;2024-02-28T11:14:16;101343.21;;;9.30;69.32
42067;BME280;27734;47.028;28.820;2024-02-28T11:16:47;101341.85;;;9.37;70.39
42067;BME280;27734;47.028;28.820;2024-02-28T11:19:22;101347.81;;;9.34;69.76
42067;BME280;27734;47.028;28.820;2024-02-28T11:21:55;101351.73;;;9.26;69.89
42067;BME280;27734;47.028;28.820;2024-02-28T11:24:30;101340.59;;;9.30;69.70
42067;BME280;27734;47.028;28.820;2024-02-28T11:27:03;101344.22;;;9.32;69.72
42067;BME280;27734;47.028;28.820;2024-02-28T11:29:35;101336.53;;;9.35;69.41
42067;BME280;27734;47.028;28.820;2024-02-28T11:32:08;101341.17;;;9.41;69.55
42067;BME280;27734;47.028;28.820;2024-02-28T11:34:40;101335.37;;;9.46;70.12
42067;BME280;27734;47.028;28.820;2024-02-28T11:37:17;101330.47;;;9.52;69.79
42067;BME280;27734;47.028;28.820;2024-02-28T11:39:52;101333.73;;;9.65;70.10
42067;BME280;27734;47.028;28.820;2024-02-28T11:42:21;101330.67;;;9.74;69.89
42067;BME280;27734;47.028;28.820;2024-02-28T11:44:56;101329.38;;;9.82;69.22
42067;BME280;27734;47.028;28.820;2024-02-28T11:47:30;101321.91;;;9.89;69.55
42067;BME280;27734;47.028;28.820;2024-02-28T11:50:04;101318.84;;;9.98;69.82
42067;BME280;27734;47.028;28.820;2024-02-28T11:52:36;101318.58;;;10.10;69.66
42067;BME280;27734;47.028;28.820;2024-02-28T11:55:08;101315.58;;;10.20;69.26
42067;BME280;27734;47.028;28.820;2024-02-28T11:57:39;101313.34;;;10.28;69.75
42067;BME280;27734;47.028;28.820;2024-02-28T12:00:24;101321.28;;;10.30;69.66
42067;BME280;27734;47.028;28.820;2024-02-28T12:03:06;101319.94;;;10.20;69.28
42067;BME280;27734;47.028;28.820;2024-02-28T12:05:42;101316.27;;;10.16;69.12
42067;BME280;27734;47.028;28.820;2024-02-28T12:08:18;101318.34;;;10.05;69.25
42067;BME280;27734;47.028;28.820;2024-02-28T12:11:05;101320.27;;;9.92;69.05
42067;BME280;27734;47.028;28.820;2024-02-28T12:13:38;101325.67;;;9.78;68.94
42067;BME280;27734;47.028;28.820;2024-02-28T12:16:10;101313.98;;;9.71;69.25
42067;BME280;27734;47.028;28.820;2024-02-28T12:18:42;101311.44;;;9.73;69.33
42067;BME280;27734;47.028;28.820;2024-02-28T12:21:15;101309.62;;;9.72;69.08
42067;BME280;27734;47.028;28.820;2024-02-28T12:23:50;101311.05;;;9.65;68.90
42067;BME280;27734;47.028;28.820;2024-02-28T12:26:24;101306.05;;;9.53;68.68
42067;BME280;27734;47.028;28.820;2024-02-28T12:28:58;101311.80;;;9.46;69.36
42067;BME280;27734;47.028;28.820;2024-02-28T12:31:31;101310.58;;;9.40;69.40
42067;BME280;27734;47.028;28.820;2024-02-28T12:34:03;101308.69;;;9.37;69.50
42067;BME280;27734;47.028;28.820;2024-02-28T12:36:37;101310.25;;;9.33;69.45
42067;BME280;27734;47.028;28.820;2024-02-28T12:39:09;101303.03;;;9.29;69.67
42067;BME280;27734;47.028;28.820;2024-02-28T12:41:41;101300.97;;;9.24;69.91
42067;BME280;27734;47.028;28.820;2024-02-28T12:44:15;101300.73;;;9.19;69.93
42067;BME280;27734;47.028;28.820;2024-02-28T12:46:53;101304.91;;;9.15;69.52
42067;BME280;27734;47.028;28.820;2024-02-28T12:49:25;101306.64;;;9.15;69.57
42067;BME280;27734;47.028;28.820;2024-02-28T12:51:56;101300.48;;;9.14;70.05
42067;BME280;27734;47.028;28.820;2024-02-28T12:54:28;101307.44;;;9.14;69.76
42067;BME280;27734;47.028;28.820;2024-02-28T12:57:00;101304.02;;;9.15;69.92
42067;BME280;27734;47.028;28.820;2024-02-28T12:59:34;101293.55;;;9.15;70.19
42067;BME280;27734;47.028;28.820;2024-02-28T13:02:07;101295.33;;;9.16;70.40
42067;BME280;27734;47.028;28.820;2024-02-28T13:04:40;101293.71;;;9.18;70.54
42067;BME280;27734;47.028;28.820;2024-02-28T13:07:11;101291.17;;;9.20;70.46
42067;BME280;27734;47.028;28.820;2024-02-28T13:09:43;101285.27;;;9.24;70.60
42067;BME280;27734;47.028;28.820;2024-02-28T13:12:14;101287.97;;;9.25;70.49
42067;BME280;27734;47.028;28.820;2024-02-28T13:14:45;101282.73;;;9.25;70.37
42067;BME280;27734;47.028;28.820;2024-02-28T13:17:17;101282.81;;;9.27;70.93
42067;BME280;27734;47.028;28.820;2024-02-28T13:19:49;101275.20;;;9.31;70.73
42067;BME280;27734;47.028;28.820;2024-02-28T13:22:20;101278.82;;;9.33;70.20